sensor_id;sensor_type;location;lat;lon;timestamp;P1;durP1;ratioP1;P2;durP2;ratioP2
3643;SDS011;1838;50.742;7.158;2022-08-19T00:00:09;19.30;;;14.87;;
3643;SDS011;1838;50.742;7.158;2022-08-19T00:02:36;14.90;;;13.40;;
3643;SDS011;1838;50.742;7.158;2022-08-19T00:05:02;15.77;;;14.17;;
3643;SDS011;1838;50.742;7.158;2022-08-19T00:07:28;18.90;;;15.40;;
3643;SDS011;1838;50.742;7.158;2022-08-19T00:09:54;17.13;;;13.70;;
3643;SDS011;1838;50.742;7.158;2022-08-19T00:12:19;17.40;;;13.40;;
3643;SDS011;1838;50.742;7.158;2022-08-19T00:14:45;15.80;;;14.20;;
3643;SDS011;1838;50.742;7.158;2022-08-19T00:17:11;18.80;;;14.43;;
3643;SDS011;1838;50.742;7.158;2022-08-19T00:19:37;16.80;;;14.13;;
3643;SDS011;1838;50.742;7.158;2022-08-19T00:22:04;17.93;;;13.00;;
3643;SDS011;1838;50.742;7.158;2022-08-19T00:24:30;15.87;;;13.67;;
3643;SDS011;1838;50.742;7.158;2022-08-19T00:26:57;19.53;;;13.47;;
3643;SDS011;1838;50.742;7.158;2022-08-19T00:29:23;17.70;;;13.13;;
3643;SDS011;1838;50.742;7.158;2022-08-19T00:31:50;15.63;;;13.90;;
3643;SDS011;1838;50.742;7.158;2022-08-19T00:34:19;16.63;;;13.07;;
3643;SDS011;1838;50.742;7.158;2022-08-19T00:36:45;15.80;;;12.43;;
3643;SDS011;1838;50.742;7.158;2022-08-19T00:39:12;19.83;;;13.10;;
3643;SDS011;1838;50.742;7.158;2022-08-19T00:41:39;17.23;;;14.07;;
3643;SDS011;1838;50.742;7.158;2022-08-19T00:44:07;13.73;;;12.23;;
3643;SDS011;1838;50.742;7.158;2022-08-19T00:46:39;16.77;;;12.13;;
3643;SDS011;1838;50.742;7.158;2022-08-19T00:49:13;13.93;;;12.50;;
3643;SDS011;1838;50.742;7.158;2022-08-19T00:51:41;16.17;;;14.47;;
3643;SDS011;1838;50.742;7.158;2022-08-19T00:54:09;17.00;;;14.00;;
3643;SDS011;1838;50.742;7.158;2022-08-19T00:56:35;16.00;;;14.10;;
3643;SDS011;1838;50.742;7.158;2022-08-19T00:59:02;17.63;;;13.47;;
3643;SDS011;1838;50.742;7.158;2022-08-19T01:01:33;16.57;;;12.70;;
3643;SDS011;1838;50.742;7.158;2022-08-19T01:04:06;14.43;;;12.90;;
3643;SDS011;1838;50.742;7.158;2022-08-19T01:06:32;14.17;;;12.67;;
3643;SDS011;1838;50.742;7.158;2022-08-19T01:09:00;16.53;;;13.00;;
3643;SDS011;1838;50.742;7.158;2022-08-19T01:11:29;13.40;;;12.00;;
3643;SDS011;1838;50.742;7.158;2022-08-19T01:13:56;17.13;;;13.67;;
3643;SDS011;1838;50.742;7.158;2022-08-19T01:16:22;20.73;;;13.33;;
3643;SDS011;1838;50.742;7.158;2022-08-19T01:18:50;19.10;;;15.47;;
3643;SDS011;1838;50.742;7.158;2022-08-19T01:21:18;16.43;;;14.60;;
3643;SDS011;1838;50.742;7.158;2022-08-19T01:24:04;18.53;;;14.53;;
3643;SDS011;1838;50.742;7.158;2022-08-19T01:26:30;22.80;;;16.27;;
3643;SDS011;1838;50.742;7.158;2022-08-19T01:28:56;22.80;;;17.80;;
3643;SDS011;1838;50.742;7.158;2022-08-19T01:31:25;19.07;;;13.23;;
3643;SDS011;1838;50.742;7.158;2022-08-19T01:33:56;17.20;;;13.83;;
3643;SDS011;1838;50.742;7.158;2022-08-19T01:36:27;15.20;;;13.33;;
3643;SDS011;1838;50.742;7.158;2022-08-19T01:38:57;19.67;;;15.00;;
3643;SDS011;1838;50.742;7.158;2022-08-19T01:41:24;19.00;;;15.10;;
3643;SDS011;1838;50.742;7.158;2022-08-19T01:43:51;20.10;;;15.20;;
3643;SDS011;1838;50.742;7.158;2022-08-19T01:46:18;18.67;;;12.60;;
3643;SDS011;1838;50.742;7.158;2022-08-19T01:48:44;16.37;;;14.60;;
3643;SDS011;1838;50.742;7.158;2022-08-19T01:51:11;19.40;;;13.10;;
3643;SDS011;1838;50.742;7.158;2022-08-19T01:53:37;18.17;;;14.93;;
3643;SDS011;1838;50.742;7.158;2022-08-19T01:56:03;16.77;;;15.07;;
3643;SDS011;1838;50.742;7.158;2022-08-19T01:58:35;19.90;;;14.23;;
3643;SDS011;1838;50.742;7.158;2022-08-19T02:01:04;18.30;;;14.73;;
3643;SDS011;1838;50.742;7.158;2022-08-19T02:03:30;17.90;;;13.57;;
3643;SDS011;1838;50.742;7.158;2022-08-19T02:05:56;16.50;;;13.97;;
3643;SDS011;1838;50.742;7.158;2022-08-19T02:08:24;17.73;;;15.13;;
3643;SDS011;1838;50.742;7.158;2022-08-19T02:10:51;18.50;;;13.10;;
3643;SDS011;1838;50.742;7.158;2022-08-19T02:13:17;16.77;;;15.07;;
3643;SDS011;1838;50.742;7.158;2022-08-19T02:15:43;21.57;;;15.73;;
3643;SDS011;1838;50.742;7.158;2022-08-19T02:18:08;21.53;;;15.40;;
3643;SDS011;1838;50.742;7.158;2022-08-19T02:20:34;21.17;;;15.47;;
3643;SDS011;1838;50.742;7.158;2022-08-19T02:23:00;19.17;;;15.10;;
3643;SDS011;1838;50.742;7.158;2022-08-19T02:25:26;19.03;;;14.10;;
3643;SDS011;1838;50.742;7.158;2022-08-19T02:27:52;17.00;;;15.30;;
3643;SDS011;1838;50.742;7.158;2022-08-19T02:30:19;20.97;;;16.67;;
3643;SDS011;1838;50.742;7.158;2022-08-19T02:32:45;18.93;;;16.93;;
3643;SDS011;1838;50.742;7.158;2022-08-19T02:35:12;19.57;;;16.00;;
3643;SDS011;1838;50.742;7.158;2022-08-19T02:37:38;19.83;;;14.10;;
3643;SDS011;1838;50.742;7.158;2022-08-19T02:40:22;18.23;;;13.63;;
3643;SDS011;1838;50.742;7.158;2022-08-19T02:42:47;15.97;;;14.27;;
3643;SDS011;1838;50.742;7.158;2022-08-19T02:45:13;16.33;;;14.30;;
3643;SDS011;1838;50.742;7.158;2022-08-19T02:47:39;24.50;;;16.27;;
3643;SDS011;1838;50.742;7.158;2022-08-19T02:50:05;21.37;;;15.20;;
3643;SDS011;1838;50.742;7.158;2022-08-19T02:52:32;25.87;;;14.80;;
3643;SDS011;1838;50.742;7.158;2022-08-19T02:54:58;22.13;;;16.50;;
3643;SDS011;1838;50.742;7.158;2022-08-19T02:57:25;22.70;;;16.80;;
3643;SDS011;1838;50.742;7.158;2022-08-19T02:59:50;24.73;;;17.00;;
3643;SDS011;1838;50.742;7.158;2022-08-19T03:02:17;19.23;;;16.70;;
3643;SDS011;1838;50.742;7.158;2022-08-19T03:04:42;17.47;;;15.20;;
3643;SDS011;1838;50.742;7.158;2022-08-19T03:07:08;23.00;;;16.57;;
3643;SDS011;1838;50.742;7.158;2022-08-19T03:09:36;30.67;;;16.47;;
3643;SDS011;1838;50.742;7.158;2022-08-19T03:12:03;24.43;;;15.60;;
3643;SDS011;1838;50.742;7.158;2022-08-19T03:14:32;24.53;;;16.27;;
3643;SDS011;1838;50.742;7.158;2022-08-19T03:16:58;16.77;;;14.83;;
3643;SDS011;1838;50.742;7.158;2022-08-19T03:19:24;21.30;;;16.50;;
3643;SDS011;1838;50.742;7.158;2022-08-19T03:21:51;22.23;;;16.73;;
3643;SDS011;1838;50.742;7.158;2022-08-19T03:24:17;29.43;;;16.07;;
3643;SDS011;1838;50.742;7.158;2022-08-19T03:26:45;17.50;;;13.97;;
3643;SDS011;1838;50.742;7.158;2022-08-19T03:29:14;20.43;;;16.27;;
3643;SDS011;1838;50.742;7.158;2022-08-19T03:31:40;18.87;;;14.70;;
3643;SDS011;1838;50.742;7.158;2022-08-19T03:34:08;19.30;;;16.67;;
3643;SDS011;1838;50.742;7.158;2022-08-19T03:36:36;26.80;;;16.53;;
3643;SDS011;1838;50.742;7.158;2022-08-19T03:39:03;17.90;;;15.00;;
3643;SDS011;1838;50.742;7.158;2022-08-19T03:41:35;18.40;;;16.30;;
3643;SDS011;1838;50.742;7.158;2022-08-19T03:44:02;22.40;;;14.90;;
3643;SDS011;1838;50.742;7.158;2022-08-19T03:46:30;28.07;;;17.43;;
3643;SDS011;1838;50.742;7.158;2022-08-19T03:48:58;16.63;;;14.77;;
3643;SDS011;1838;50.742;7.158;2022-08-19T03:51:31;21.57;;;15.40;;
3643;SDS011;1838;50.742;7.158;2022-08-19T03:54:03;25.20;;;15.07;;
3643;SDS011;1838;50.742;7.158;2022-08-19T03:56:32;18.50;;;13.93;;
3643;SDS011;1838;50.742;7.158;2022-08-19T03:59:00;17.90;;;15.30;;
3643;SDS011;1838;50.742;7.158;2022-08-19T04:01:27;22.10;;;15.80;;
3643;SDS011;1838;50.742;7.158;2022-08-19T04:03:53;17.67;;;14.80;;
3643;SDS011;1838;50.742;7.158;2022-08-19T04:06:24;17.27;;;13.90;;
3643;SDS011;1838;50.742;7.158;2022-08-19T04:08:53;18.90;;;15.27;;
3643;SDS011;1838;50.742;7.158;2022-08-19T04:11:21;21.50;;;16.23;;
3643;SDS011;1838;50.742;7.158;2022-08-19T04:13:49;18.43;;;14.83;;
3643;SDS011;1838;50.742;7.158;2022-08-19T04:16:16;15.90;;;13.87;;
3643;SDS011;1838;50.742;7.158;2022-08-19T04:18:43;18.00;;;15.37;;
3643;SDS011;1838;50.742;7.158;2022-08-19T04:21:14;22.47;;;15.87;;
3643;SDS011;1838;50.742;7.158;2022-08-19T04:23:41;20.90;;;16.03;;
3643;SDS011;1838;50.742;7.158;2022-08-19T04:26:07;18.27;;;15.87;;
3643;SDS011;1838;50.742;7.158;2022-08-19T04:28:36;18.10;;;15.47;;
3643;SDS011;1838;50.742;7.158;2022-08-19T04:31:02;22.23;;;14.63;;
3643;SDS011;1838;50.742;7.158;2022-08-19T04:33:27;18.50;;;15.40;;
3643;SDS011;1838;50.742;7.158;2022-08-19T04:35:53;17.73;;;15.83;;
3643;SDS011;1838;50.742;7.158;2022-08-19T04:38:19;21.00;;;17.23;;
3643;SDS011;1838;50.742;7.158;2022-08-19T04:40:48;18.27;;;16.00;;
3643;SDS011;1838;50.742;7.158;2022-08-19T04:43:34;20.00;;;16.30;;
3643;SDS011;1838;50.742;7.158;2022-08-19T04:46:09;22.90;;;16.13;;
3643;SDS011;1838;50.742;7.158;2022-08-19T04:48:36;20.13;;;16.83;;
3643;SDS011;1838;50.742;7.158;2022-08-19T04:51:05;22.80;;;19.33;;
3643;SDS011;1838;50.742;7.158;2022-08-19T04:53:34;23.00;;;17.00;;
3643;SDS011;1838;50.742;7.158;2022-08-19T04:56:05;25.00;;;20.10;;
3643;SDS011;1838;50.742;7.158;2022-08-19T04:58:33;23.20;;;17.13;;
3643;SDS011;1838;50.742;7.158;2022-08-19T05:01:00;28.07;;;17.33;;
3643;SDS011;1838;50.742;7.158;2022-08-19T05:03:27;27.60;;;19.60;;
3643;SDS011;1838;50.742;7.158;2022-08-19T05:05:52;26.77;;;17.97;;
3643;SDS011;1838;50.742;7.158;2022-08-19T05:08:19;22.60;;;18.70;;
3643;SDS011;1838;50.742;7.158;2022-08-19T05:10:47;20.50;;;16.80;;
3643;SDS011;1838;50.742;7.158;2022-08-19T05:13:14;20.77;;;16.73;;
3643;SDS011;1838;50.742;7.158;2022-08-19T05:15:42;20.40;;;16.10;;
3643;SDS011;1838;50.742;7.158;2022-08-19T05:18:08;20.80;;;16.40;;
3643;SDS011;1838;50.742;7.158;2022-08-19T05:20:52;26.37;;;18.20;;
3643;SDS011;1838;50.742;7.158;2022-08-19T05:23:36;18.93;;;16.93;;
3643;SDS011;1838;50.742;7.158;2022-08-19T05:26:01;24.80;;;17.63;;
3643;SDS011;1838;50.742;7.158;2022-08-19T05:28:27;25.93;;;20.80;;
3643;SDS011;1838;50.742;7.158;2022-08-19T05:30:53;32.03;;;24.13;;
3643;SDS011;1838;50.742;7.158;2022-08-19T05:33:20;31.30;;;21.80;;
3643;SDS011;1838;50.742;7.158;2022-08-19T05:35:47;30.70;;;21.70;;
3643;SDS011;1838;50.742;7.158;2022-08-19T05:38:14;30.40;;;23.33;;
3643;SDS011;1838;50.742;7.158;2022-08-19T05:40:40;39.53;;;27.20;;
3643;SDS011;1838;50.742;7.158;2022-08-19T05:43:07;39.67;;;28.30;;
3643;SDS011;1838;50.742;7.158;2022-08-19T05:45:37;48.90;;;33.03;;
3643;SDS011;1838;50.742;7.158;2022-08-19T05:48:04;41.67;;;28.60;;
3643;SDS011;1838;50.742;7.158;2022-08-19T05:50:30;52.53;;;30.83;;
3643;SDS011;1838;50.742;7.158;2022-08-19T05:52:55;54.03;;;36.73;;
3643;SDS011;1838;50.742;7.158;2022-08-19T05:55:21;52.83;;;36.20;;
3643;SDS011;1838;50.742;7.158;2022-08-19T05:57:47;48.10;;;33.63;;
3643;SDS011;1838;50.742;7.158;2022-08-19T06:00:13;58.93;;;35.87;;
3643;SDS011;1838;50.742;7.158;2022-08-19T06:02:39;58.40;;;35.73;;
3643;SDS011;1838;50.742;7.158;2022-08-19T06:05:06;61.23;;;37.70;;
3643;SDS011;1838;50.742;7.158;2022-08-19T06:07:34;53.20;;;35.73;;
3643;SDS011;1838;50.742;7.158;2022-08-19T06:10:00;54.17;;;36.43;;
3643;SDS011;1838;50.742;7.158;2022-08-19T06:12:28;48.97;;;34.07;;
3643;SDS011;1838;50.742;7.158;2022-08-19T06:14:59;60.90;;;36.30;;
3643;SDS011;1838;50.742;7.158;2022-08-19T06:17:26;46.20;;;32.63;;
3643;SDS011;1838;50.742;7.158;2022-08-19T06:19:52;52.37;;;33.73;;
3643;SDS011;1838;50.742;7.158;2022-08-19T06:22:17;59.20;;;36.83;;
3643;SDS011;1838;50.742;7.158;2022-08-19T06:24:43;60.67;;;38.27;;
3643;SDS011;1838;50.742;7.158;2022-08-19T06:27:08;59.73;;;36.03;;
3643;SDS011;1838;50.742;7.158;2022-08-19T06:29:34;55.10;;;35.03;;
3643;SDS011;1838;50.742;7.158;2022-08-19T06:32:01;50.60;;;37.00;;
3643;SDS011;1838;50.742;7.158;2022-08-19T06:34:28;59.23;;;39.63;;
3643;SDS011;1838;50.742;7.158;2022-08-19T06:36:57;61.70;;;40.30;;
3643;SDS011;1838;50.742;7.158;2022-08-19T06:39:26;64.30;;;37.33;;
3643;SDS011;1838;50.742;7.158;2022-08-19T06:41:56;56.97;;;39.50;;
3643;SDS011;1838;50.742;7.158;2022-08-19T06:44:24;53.50;;;35.30;;
3643;SDS011;1838;50.742;7.158;2022-08-19T06:46:52;52.33;;;35.70;;
3643;SDS011;1838;50.742;7.158;2022-08-19T06:49:18;53.23;;;36.77;;
3643;SDS011;1838;50.742;7.158;2022-08-19T06:51:44;64.63;;;38.83;;
3643;SDS011;1838;50.742;7.158;2022-08-19T06:54:14;56.53;;;36.10;;
3643;SDS011;1838;50.742;7.158;2022-08-19T06:56:41;49.83;;;35.30;;
3643;SDS011;1838;50.742;7.158;2022-08-19T06:59:09;48.93;;;35.13;;
3643;SDS011;1838;50.742;7.158;2022-08-19T07:01:37;58.80;;;35.23;;
3643;SDS011;1838;50.742;7.158;2022-08-19T07:04:06;52.20;;;34.40;;
3643;SDS011;1838;50.742;7.158;2022-08-19T07:06:33;62.30;;;33.93;;
3643;SDS011;1838;50.742;7.158;2022-08-19T07:09:00;44.87;;;31.90;;
3643;SDS011;1838;50.742;7.158;2022-08-19T07:11:26;53.13;;;34.03;;
3643;SDS011;1838;50.742;7.158;2022-08-19T07:13:52;50.63;;;33.93;;
3643;SDS011;1838;50.742;7.158;2022-08-19T07:16:18;46.43;;;33.47;;
3643;SDS011;1838;50.742;7.158;2022-08-19T07:18:45;45.57;;;33.97;;
3643;SDS011;1838;50.742;7.158;2022-08-19T07:21:13;46.90;;;34.27;;
3643;SDS011;1838;50.742;7.158;2022-08-19T07:23:41;51.50;;;35.00;;
3643;SDS011;1838;50.742;7.158;2022-08-19T07:26:08;46.70;;;32.80;;
3643;SDS011;1838;50.742;7.158;2022-08-19T07:28:37;51.67;;;35.23;;
3643;SDS011;1838;50.742;7.158;2022-08-19T07:31:06;46.83;;;33.00;;
3643;SDS011;1838;50.742;7.158;2022-08-19T07:33:32;43.50;;;31.27;;
3643;SDS011;1838;50.742;7.158;2022-08-19T07:36:01;47.83;;;33.43;;
3643;SDS011;1838;50.742;7.158;2022-08-19T07:38:31;49.73;;;32.47;;
3643;SDS011;1838;50.742;7.158;2022-08-19T07:40:57;43.17;;;31.10;;
3643;SDS011;1838;50.742;7.158;2022-08-19T07:43:24;42.90;;;30.43;;
3643;SDS011;1838;50.742;7.158;2022-08-19T07:45:50;42.07;;;29.37;;
3643;SDS011;1838;50.742;7.158;2022-08-19T07:48:17;43.83;;;29.53;;
3643;SDS011;1838;50.742;7.158;2022-08-19T07:50:43;44.43;;;30.13;;
3643;SDS011;1838;50.742;7.158;2022-08-19T07:53:09;41.70;;;28.60;;
3643;SDS011;1838;50.742;7.158;2022-08-19T07:55:34;40.43;;;28.70;;
3643;SDS011;1838;50.742;7.158;2022-08-19T07:58:00;38.00;;;28.53;;
3643;SDS011;1838;50.742;7.158;2022-08-19T08:00:26;40.17;;;28.23;;
3643;SDS011;1838;50.742;7.158;2022-08-19T08:02:52;34.97;;;27.30;;
3643;SDS011;1838;50.742;7.158;2022-08-19T08:05:18;41.30;;;27.17;;
3643;SDS011;1838;50.742;7.158;2022-08-19T08:08:02;35.47;;;27.50;;
3643;SDS011;1838;50.742;7.158;2022-08-19T08:10:46;34.80;;;24.80;;
3643;SDS011;1838;50.742;7.158;2022-08-19T08:13:11;33.90;;;23.57;;
3643;SDS011;1838;50.742;7.158;2022-08-19T08:15:37;40.63;;;25.37;;
3643;SDS011;1838;50.742;7.158;2022-08-19T08:18:04;39.53;;;30.97;;
3643;SDS011;1838;50.742;7.158;2022-08-19T08:20:29;39.90;;;25.90;;
3643;SDS011;1838;50.742;7.158;2022-08-19T08:22:55;36.30;;;25.90;;
3643;SDS011;1838;50.742;7.158;2022-08-19T08:25:39;32.10;;;25.67;;
3643;SDS011;1838;50.742;7.158;2022-08-19T08:28:05;35.10;;;25.80;;
3643;SDS011;1838;50.742;7.158;2022-08-19T08:30:33;38.00;;;26.50;;
3643;SDS011;1838;50.742;7.158;2022-08-19T08:33:00;39.77;;;27.83;;
3643;SDS011;1838;50.742;7.158;2022-08-19T08:35:26;37.03;;;27.27;;
3643;SDS011;1838;50.742;7.158;2022-08-19T08:37:53;32.03;;;23.73;;
3643;SDS011;1838;50.742;7.158;2022-08-19T08:40:30;29.17;;;23.07;;
3643;SDS011;1838;50.742;7.158;2022-08-19T08:43:24;39.80;;;26.37;;
3643;SDS011;1838;50.742;7.158;2022-08-19T08:48:34;34.87;;;26.37;;
3643;SDS011;1838;50.742;7.158;2022-08-19T08:51:19;30.50;;;22.87;;
3643;SDS011;1838;50.742;7.158;2022-08-19T08:53:48;32.23;;;22.43;;
3643;SDS011;1838;50.742;7.158;2022-08-19T08:56:15;33.60;;;25.73;;
3643;SDS011;1838;50.742;7.158;2022-08-19T08:58:49;25.73;;;19.50;;
3643;SDS011;1838;50.742;7.158;2022-08-19T09:01:34;34.80;;;23.90;;
3643;SDS011;1838;50.742;7.158;2022-08-19T09:04:02;30.83;;;23.53;;
3643;SDS011;1838;50.742;7.158;2022-08-19T09:06:37;37.93;;;26.43;;
3643;SDS011;1838;50.742;7.158;2022-08-19T09:09:14;28.50;;;21.23;;
3643;SDS011;1838;50.742;7.158;2022-08-19T09:11:51;40.87;;;24.03;;
3643;SDS011;1838;50.742;7.158;2022-08-19T09:14:24;31.30;;;22.07;;
3643;SDS011;1838;50.742;7.158;2022-08-19T09:17:13;30.97;;;22.67;;
3643;SDS011;1838;50.742;7.158;2022-08-19T09:19:49;42.27;;;24.87;;
3643;SDS011;1838;50.742;7.158;2022-08-19T09:22:17;29.17;;;21.20;;
3643;SDS011;1838;50.742;7.158;2022-08-19T09:24:46;25.60;;;18.80;;
3643;SDS011;1838;50.742;7.158;2022-08-19T09:27:12;23.67;;;18.23;;
3643;SDS011;1838;50.742;7.158;2022-08-19T09:29:37;36.47;;;25.37;;
3643;SDS011;1838;50.742;7.158;2022-08-19T09:32:04;26.90;;;20.57;;
3643;SDS011;1838;50.742;7.158;2022-08-19T09:34:30;31.43;;;22.13;;
3643;SDS011;1838;50.742;7.158;2022-08-19T09:36:57;28.17;;;21.50;;
3643;SDS011;1838;50.742;7.158;2022-08-19T09:39:25;34.33;;;23.93;;
3643;SDS011;1838;50.742;7.158;2022-08-19T09:41:50;25.50;;;20.97;;
3643;SDS011;1838;50.742;7.158;2022-08-19T09:44:18;27.33;;;23.80;;
3643;SDS011;1838;50.742;7.158;2022-08-19T09:46:45;27.93;;;22.20;;
3643;SDS011;1838;50.742;7.158;2022-08-19T09:49:14;34.90;;;25.30;;
3643;SDS011;1838;50.742;7.158;2022-08-19T09:51:42;35.03;;;24.30;;
3643;SDS011;1838;50.742;7.158;2022-08-19T09:54:07;39.47;;;28.00;;
3643;SDS011;1838;50.742;7.158;2022-08-19T09:56:33;49.40;;;31.47;;
3643;SDS011;1838;50.742;7.158;2022-08-19T09:58:59;40.03;;;28.80;;
3643;SDS011;1838;50.742;7.158;2022-08-19T10:01:26;45.80;;;30.17;;
3643;SDS011;1838;50.742;7.158;2022-08-19T10:03:54;40.83;;;29.60;;
3643;SDS011;1838;50.742;7.158;2022-08-19T10:06:21;34.50;;;27.53;;
3643;SDS011;1838;50.742;7.158;2022-08-19T10:08:48;39.50;;;24.97;;
3643;SDS011;1838;50.742;7.158;2022-08-19T10:11:16;43.13;;;30.10;;
3643;SDS011;1838;50.742;7.158;2022-08-19T10:13:43;44.03;;;30.67;;
3643;SDS011;1838;50.742;7.158;2022-08-19T10:16:10;41.73;;;29.90;;
3643;SDS011;1838;50.742;7.158;2022-08-19T10:18:37;38.00;;;31.70;;
3643;SDS011;1838;50.742;7.158;2022-08-19T10:21:08;32.03;;;25.23;;
3643;SDS011;1838;50.742;7.158;2022-08-19T10:23:36;44.77;;;28.40;;
3643;SDS011;1838;50.742;7.158;2022-08-19T10:26:04;36.07;;;28.23;;
3643;SDS011;1838;50.742;7.158;2022-08-19T10:28:32;25.53;;;22.70;;
3643;SDS011;1838;50.742;7.158;2022-08-19T10:31:02;37.50;;;27.43;;
3643;SDS011;1838;50.742;7.158;2022-08-19T10:33:33;57.97;;;24.30;;
3643;SDS011;1838;50.742;7.158;2022-08-19T10:36:00;37.73;;;25.50;;
3643;SDS011;1838;50.742;7.158;2022-08-19T10:38:31;38.43;;;26.90;;
3643;SDS011;1838;50.742;7.158;2022-08-19T10:41:05;43.03;;;28.40;;
3643;SDS011;1838;50.742;7.158;2022-08-19T10:43:32;37.23;;;28.20;;
3643;SDS011;1838;50.742;7.158;2022-08-19T10:46:00;34.10;;;25.63;;
3643;SDS011;1838;50.742;7.158;2022-08-19T10:48:26;37.80;;;28.27;;
3643;SDS011;1838;50.742;7.158;2022-08-19T10:50:52;71.23;;;28.47;;
3643;SDS011;1838;50.742;7.158;2022-08-19T10:53:36;41.03;;;27.17;;
3643;SDS011;1838;50.742;7.158;2022-08-19T10:56:02;27.93;;;22.90;;
3643;SDS011;1838;50.742;7.158;2022-08-19T10:58:46;26.93;;;21.20;;
3643;SDS011;1838;50.742;7.158;2022-08-19T11:01:13;34.40;;;25.47;;
3643;SDS011;1838;50.742;7.158;2022-08-19T11:03:39;27.50;;;21.40;;
3643;SDS011;1838;50.742;7.158;2022-08-19T11:06:06;26.73;;;20.30;;
3643;SDS011;1838;50.742;7.158;2022-08-19T11:08:33;30.53;;;21.77;;
3643;SDS011;1838;50.742;7.158;2022-08-19T11:11:02;26.13;;;21.80;;
3643;SDS011;1838;50.742;7.158;2022-08-19T11:13:29;21.37;;;18.07;;
3643;SDS011;1838;50.742;7.158;2022-08-19T11:15:58;21.60;;;19.30;;
3643;SDS011;1838;50.742;7.158;2022-08-19T11:18:25;20.20;;;18.10;;
3643;SDS011;1838;50.742;7.158;2022-08-19T11:20:51;18.97;;;16.13;;
3643;SDS011;1838;50.742;7.158;2022-08-19T11:23:17;21.97;;;18.80;;
3643;SDS011;1838;50.742;7.158;2022-08-19T11:25:43;19.67;;;17.13;;
3643;SDS011;1838;50.742;7.158;2022-08-19T11:28:10;17.13;;;15.33;;
3643;SDS011;1838;50.742;7.158;2022-08-19T11:30:36;20.10;;;16.30;;
3643;SDS011;1838;50.742;7.158;2022-08-19T11:33:02;22.83;;;18.90;;
3643;SDS011;1838;50.742;7.158;2022-08-19T11:35:28;20.23;;;17.20;;
3643;SDS011;1838;50.742;7.158;2022-08-19T11:37:53;22.80;;;17.07;;
3643;SDS011;1838;50.742;7.158;2022-08-19T11:40:20;24.63;;;18.10;;
3643;SDS011;1838;50.742;7.158;2022-08-19T11:42:46;19.90;;;16.50;;
3643;SDS011;1838;50.742;7.158;2022-08-19T11:45:22;23.60;;;17.40;;
3643;SDS011;1838;50.742;7.158;2022-08-19T11:47:49;20.43;;;18.33;;
3643;SDS011;1838;50.742;7.158;2022-08-19T11:50:15;18.53;;;16.70;;
3643;SDS011;1838;50.742;7.158;2022-08-19T11:52:41;16.37;;;14.67;;
3643;SDS011;1838;50.742;7.158;2022-08-19T11:55:07;24.50;;;14.70;;
3643;SDS011;1838;50.742;7.158;2022-08-19T11:57:33;15.03;;;13.43;;
3643;SDS011;1838;50.742;7.158;2022-08-19T11:59:59;21.30;;;14.83;;
3643;SDS011;1838;50.742;7.158;2022-08-19T12:02:24;21.53;;;14.03;;
3643;SDS011;1838;50.742;7.158;2022-08-19T12:04:50;16.27;;;12.87;;
3643;SDS011;1838;50.742;7.158;2022-08-19T12:07:15;18.00;;;15.33;;
3643;SDS011;1838;50.742;7.158;2022-08-19T12:09:41;15.50;;;13.90;;
3643;SDS011;1838;50.742;7.158;2022-08-19T12:12:07;17.73;;;14.60;;
3643;SDS011;1838;50.742;7.158;2022-08-19T12:14:34;21.00;;;15.10;;
3643;SDS011;1838;50.742;7.158;2022-08-19T12:17:00;18.80;;;15.80;;
3643;SDS011;1838;50.742;7.158;2022-08-19T12:19:27;17.10;;;13.10;;
3643;SDS011;1838;50.742;7.158;2022-08-19T12:21:53;17.33;;;12.87;;
3643;SDS011;1838;50.742;7.158;2022-08-19T12:24:24;15.37;;;13.77;;
3643;SDS011;1838;50.742;7.158;2022-08-19T12:26:50;19.53;;;14.80;;
3643;SDS011;1838;50.742;7.158;2022-08-19T12:29:16;16.50;;;14.80;;
3643;SDS011;1838;50.742;7.158;2022-08-19T12:31:41;14.70;;;13.30;;
3643;SDS011;1838;50.742;7.158;2022-08-19T12:34:07;15.00;;;12.97;;
3643;SDS011;1838;50.742;7.158;2022-08-19T12:36:33;16.50;;;13.93;;
3643;SDS011;1838;50.742;7.158;2022-08-19T12:38:58;19.87;;;13.27;;
3643;SDS011;1838;50.742;7.158;2022-08-19T12:41:25;18.90;;;14.90;;
3643;SDS011;1838;50.742;7.158;2022-08-19T12:43:51;19.87;;;14.57;;
3643;SDS011;1838;50.742;7.158;2022-08-19T12:46:17;53.13;;;15.87;;
3643;SDS011;1838;50.742;7.158;2022-08-19T12:48:44;18.60;;;14.83;;
3643;SDS011;1838;50.742;7.158;2022-08-19T12:51:15;19.60;;;15.40;;
3643;SDS011;1838;50.742;7.158;2022-08-19T12:53:43;16.20;;;12.93;;
3643;SDS011;1838;50.742;7.158;2022-08-19T12:56:09;15.87;;;14.20;;
3643;SDS011;1838;50.742;7.158;2022-08-19T12:58:36;17.33;;;12.53;;
3643;SDS011;1838;50.742;7.158;2022-08-19T13:01:13;22.23;;;14.00;;
3643;SDS011;1838;50.742;7.158;2022-08-19T13:03:41;18.57;;;13.90;;
3643;SDS011;1838;50.742;7.158;2022-08-19T13:06:08;13.47;;;12.07;;
3643;SDS011;1838;50.742;7.158;2022-08-19T13:08:34;14.43;;;12.90;;
3643;SDS011;1838;50.742;7.158;2022-08-19T13:11:13;13.30;;;11.90;;
3643;SDS011;1838;50.742;7.158;2022-08-19T13:13:42;21.07;;;14.77;;
3643;SDS011;1838;50.742;7.158;2022-08-19T13:16:11;21.63;;;14.33;;
3643;SDS011;1838;50.742;7.158;2022-08-19T13:18:37;13.83;;;12.43;;
3643;SDS011;1838;50.742;7.158;2022-08-19T13:21:04;12.90;;;11.57;;
3643;SDS011;1838;50.742;7.158;2022-08-19T13:23:32;14.57;;;13.17;;
3643;SDS011;1838;50.742;7.158;2022-08-19T13:25:59;15.73;;;12.27;;
3643;SDS011;1838;50.742;7.158;2022-08-19T13:28:26;16.30;;;12.83;;
3643;SDS011;1838;50.742;7.158;2022-08-19T13:31:14;15.23;;;13.43;;
3643;SDS011;1838;50.742;7.158;2022-08-19T13:33:59;14.80;;;12.47;;
3643;SDS011;1838;50.742;7.158;2022-08-19T13:36:26;13.57;;;12.23;;
3643;SDS011;1838;50.742;7.158;2022-08-19T13:38:51;14.50;;;11.67;;
3643;SDS011;1838;50.742;7.158;2022-08-19T13:41:17;12.67;;;11.37;;
3643;SDS011;1838;50.742;7.158;2022-08-19T13:43:44;14.43;;;12.00;;
3643;SDS011;1838;50.742;7.158;2022-08-19T13:46:10;17.30;;;12.47;;
3643;SDS011;1838;50.742;7.158;2022-08-19T13:48:38;13.03;;;11.77;;
3643;SDS011;1838;50.742;7.158;2022-08-19T13:51:05;13.50;;;12.13;;
3643;SDS011;1838;50.742;7.158;2022-08-19T13:53:35;16.67;;;12.13;;
3643;SDS011;1838;50.742;7.158;2022-08-19T13:56:05;17.23;;;14.20;;
3643;SDS011;1838;50.742;7.158;2022-08-19T13:58:31;18.47;;;13.87;;
3643;SDS011;1838;50.742;7.158;2022-08-19T14:00:57;17.10;;;12.57;;
3643;SDS011;1838;50.742;7.158;2022-08-19T14:03:24;15.20;;;11.90;;
3643;SDS011;1838;50.742;7.158;2022-08-19T14:05:50;14.77;;;9.93;;
3643;SDS011;1838;50.742;7.158;2022-08-19T14:08:16;26.83;;;10.23;;
3643;SDS011;1838;50.742;7.158;2022-08-19T14:10:42;11.00;;;9.90;;
3643;SDS011;1838;50.742;7.158;2022-08-19T14:13:10;11.30;;;10.20;;
3643;SDS011;1838;50.742;7.158;2022-08-19T14:15:38;11.57;;;10.43;;
3643;SDS011;1838;50.742;7.158;2022-08-19T14:18:04;15.37;;;10.67;;
3643;SDS011;1838;50.742;7.158;2022-08-19T14:20:30;11.53;;;10.30;;
3643;SDS011;1838;50.742;7.158;2022-08-19T14:22:58;19.07;;;10.50;;
3643;SDS011;1838;50.742;7.158;2022-08-19T14:25:25;11.57;;;10.17;;
3643;SDS011;1838;50.742;7.158;2022-08-19T14:27:52;15.40;;;11.23;;
3643;SDS011;1838;50.742;7.158;2022-08-19T14:30:20;11.17;;;9.87;;
3643;SDS011;1838;50.742;7.158;2022-08-19T14:32:50;17.97;;;9.50;;
3643;SDS011;1838;50.742;7.158;2022-08-19T14:35:16;18.90;;;10.40;;
3643;SDS011;1838;50.742;7.158;2022-08-19T14:37:43;11.90;;;9.93;;
3643;SDS011;1838;50.742;7.158;2022-08-19T14:40:09;12.70;;;10.17;;
3643;SDS011;1838;50.742;7.158;2022-08-19T14:42:36;17.43;;;12.00;;
3643;SDS011;1838;50.742;7.158;2022-08-19T14:45:02;17.33;;;11.40;;
3643;SDS011;1838;50.742;7.158;2022-08-19T14:47:30;11.57;;;10.43;;
3643;SDS011;1838;50.742;7.158;2022-08-19T14:49:56;14.90;;;11.27;;
3643;SDS011;1838;50.742;7.158;2022-08-19T14:52:21;11.90;;;10.43;;
3643;SDS011;1838;50.742;7.158;2022-08-19T14:54:47;17.77;;;10.90;;